sensor_id;sensor_type;location;lat;lon;timestamp;pressure;altitude;pressure_sealevel;temperature;humidity
58534;BME280;44109;52.398;7.024;2023-09-12T00:01:14;101143.66;;;21.15;100.00
58534;BME280;44109;52.398;7.024;2023-09-12T00:03:42;101139.25;;;21.14;100.00
58534;BME280;44109;52.398;7.024;2023-09-12T00:06:11;101130.41;;;21.12;100.00
58534;BME280;44109;52.398;7.024;2023-09-12T00:08:38;101141.72;;;21.12;100.00
58534;BME280;44109;52.398;7.024;2023-09-12T00:11:07;101136.06;;;21.12;100.00
58534;BME280;44109;52.398;7.024;2023-09-12T00:13:37;101128.50;;;21.09;100.00
58534;BME280;44109;52.398;7.024;2023-09-12T00:16:06;101119.66;;;21.07;100.00
58534;BME280;44109;52.398;7.024;2023-09-12T00:18:35;101130.53;;;21.08;100.00
58534;BME280;44109;52.398;7.024;2023-09-12T00:21:03;101132.16;;;21.06;100.00
58534;BME280;44109;52.398;7.024;2023-09-12T00:23:31;101131.38;;;21.05;100.00
58534;BME280;44109;52.398;7.024;2023-09-12T00:25:59;101141.41;;;21.06;100.00
58534;BME280;44109;52.398;7.024;2023-09-12T00:28:26;101146.78;;;21.00;100.00
58534;BME280;44109;52.398;7.024;2023-09-12T00:30:54;101158.06;;;21.00;100.00
58534;BME280;44109;52.398;7.024;2023-09-12T00:33:22;101166.97;;;20.99;100.00
58534;BME280;44109;52.398;7.024;2023-09-12T00:35:49;101181.06;;;20.99;100.00
58534;BME280;44109;52.398;7.024;2023-09-12T00:38:17;101173.41;;;20.99;100.00
58534;BME280;44109;52.398;7.024;2023-09-12T00:40:46;101164.16;;;20.99;100.00
58534;BME280;44109;52.398;7.024;2023-09-12T00:43:15;101136.72;;;20.99;100.00
58534;BME280;44109;52.398;7.024;2023-09-12T00:45:42;101079.09;;;21.00;100.00
58534;BME280;44109;52.398;7.024;2023-09-12T00:48:10;101040.25;;;21.08;100.00
58534;BME280;44109;52.398;7.024;2023-09-12T00:50:41;101058.69;;;21.13;100.00
58534;BME280;44109;52.398;7.024;2023-09-12T00:53:10;101032.84;;;21.14;100.00
58534;BME280;44109;52.398;7.024;2023-09-12T00:55:42;101028.06;;;21.11;100.00
58534;BME280;44109;52.398;7.024;2023-09-12T00:58:17;101038.56;;;21.11;100.00
58534;BME280;44109;52.398;7.024;2023-09-12T01:00:46;101053.56;;;21.08;100.00
58534;BME280;44109;52.398;7.024;2023-09-12T01:03:14;101080.66;;;21.01;100.00
58534;BME280;44109;52.398;7.024;2023-09-12T01:05:41;101097.97;;;21.03;100.00
58534;BME280;44109;52.398;7.024;2023-09-12T01:08:10;101105.72;;;20.99;100.00
58534;BME280;44109;52.398;7.024;2023-09-12T01:10:37;101131.03;;;21.03;100.00
58534;BME280;44109;52.398;7.024;2023-09-12T01:13:06;101093.47;;;21.06;100.00
58534;BME280;44109;52.398;7.024;2023-09-12T01:15:34;101069.31;;;21.05;100.00
58534;BME280;44109;52.398;7.024;2023-09-12T01:18:02;101076.28;;;21.00;100.00
58534;BME280;44109;52.398;7.024;2023-09-12T01:20:33;101081.69;;;20.91;100.00
58534;BME280;44109;52.398;7.024;2023-09-12T01:23:21;101083.78;;;20.87;100.00
58534;BME280;44109;52.398;7.024;2023-09-12T01:26:22;101064.84;;;20.88;100.00
58534;BME280;44109;52.398;7.024;2023-09-12T01:29:04;101079.38;;;20.86;100.00
58534;BME280;44109;52.398;7.024;2023-09-12T01:31:35;101094.00;;;20.81;100.00
58534;BME280;44109;52.398;7.024;2023-09-12T01:34:09;101130.16;;;20.86;100.00
58534;BME280;44109;52.398;7.024;2023-09-12T01:36:37;101152.25;;;20.88;100.00
58534;BME280;44109;52.398;7.024;2023-09-12T01:39:05;101142.66;;;20.85;100.00
58534;BME280;44109;52.398;7.024;2023-09-12T01:41:35;101116.75;;;20.70;100.00
58534;BME280;44109;52.398;7.024;2023-09-12T01:44:10;101069.63;;;20.71;100.00
58534;BME280;44109;52.398;7.024;2023-09-12T01:46:41;101068.69;;;20.77;100.00
58534;BME280;44109;52.398;7.024;2023-09-12T01:49:11;101071.06;;;20.79;100.00
58534;BME280;44109;52.398;7.024;2023-09-12T01:51:42;101065.94;;;20.74;100.00
58534;BME280;44109;52.398;7.024;2023-09-12T01:54:10;101067.91;;;20.77;100.00
58534;BME280;44109;52.398;7.024;2023-09-12T01:56:39;101081.09;;;20.80;100.00
58534;BME280;44109;52.398;7.024;2023-09-12T01:59:10;101088.34;;;20.81;100.00
58534;BME280;44109;52.398;7.024;2023-09-12T02:01:38;101087.13;;;20.82;100.00
58534;BME280;44109;52.398;7.024;2023-09-12T02:04:07;101079.53;;;20.79;100.00
58534;BME280;44109;52.398;7.024;2023-09-12T02:06:35;101080.31;;;20.80;100.00
58534;BME280;44109;52.398;7.024;2023-09-12T02:09:03;101083.56;;;20.78;100.00
58534;BME280;44109;52.398;7.024;2023-09-12T02:11:30;101073.16;;;20.75;100.00
58534;BME280;44109;52.398;7.024;2023-09-12T02:13:58;101068.75;;;20.74;100.00
58534;BME280;44109;52.398;7.024;2023-09-12T02:16:27;101059.50;;;20.73;100.00
58534;BME280;44109;52.398;7.024;2023-09-12T02:18:55;101045.47;;;20.70;100.00
58534;BME280;44109;52.398;7.024;2023-09-12T02:21:23;101035.09;;;20.67;100.00
58534;BME280;44109;52.398;7.024;2023-09-12T02:23:50;101029.94;;;20.62;100.00
58534;BME280;44109;52.398;7.024;2023-09-12T02:26:18;101016.34;;;20.57;100.00
58534;BME280;44109;52.398;7.024;2023-09-12T02:28:45;101022.78;;;20.57;100.00
58534;BME280;44109;52.398;7.024;2023-09-12T02:31:13;101010.72;;;20.57;100.00
58534;BME280;44109;52.398;7.024;2023-09-12T02:33:42;101019.53;;;20.59;100.00
58534;BME280;44109;52.398;7.024;2023-09-12T02:36:09;101032.47;;;20.56;100.00
58534;BME280;44109;52.398;7.024;2023-09-12T02:38:37;101019.44;;;20.42;100.00
58534;BME280;44109;52.398;7.024;2023-09-12T02:41:05;101025.00;;;20.46;100.00
58534;BME280;44109;52.398;7.024;2023-09-12T02:43:32;101042.34;;;20.44;100.00
58534;BME280;44109;52.398;7.024;2023-09-12T02:46:00;101044.44;;;20.40;100.00
58534;BME280;44109;52.398;7.024;2023-09-12T02:48:27;101038.88;;;20.37;100.00
58534;BME280;44109;52.398;7.024;2023-09-12T02:50:57;101039.31;;;20.35;100.00
58534;BME280;44109;52.398;7.024;2023-09-12T02:53:24;101039.78;;;20.30;100.00
58534;BME280;44109;52.398;7.024;2023-09-12T02:55:52;101049.53;;;20.25;100.00
58534;BME280;44109;52.398;7.024;2023-09-12T02:58:20;101049.59;;;20.22;100.00
58534;BME280;44109;52.398;7.024;2023-09-12T03:00:48;101048.50;;;20.16;100.00
58534;BME280;44109;52.398;7.024;2023-09-12T03:03:20;101031.06;;;20.01;100.00
58534;BME280;44109;52.398;7.024;2023-09-12T03:05:48;101042.22;;;20.08;100.00
58534;BME280;44109;52.398;7.024;2023-09-12T03:08:26;101038.09;;;19.89;100.00
58534;BME280;44109;52.398;7.024;2023-09-12T03:10:55;101019.38;;;19.79;100.00
58534;BME280;44109;52.398;7.024;2023-09-12T03:13:23;101008.91;;;19.80;100.00
58534;BME280;44109;52.398;7.024;2023-09-12T03:15:52;101014.88;;;19.85;100.00
58534;BME280;44109;52.398;7.024;2023-09-12T03:18:20;100998.09;;;19.78;100.00
58534;BME280;44109;52.398;7.024;2023-09-12T03:20:47;101014.53;;;19.80;100.00
58534;BME280;44109;52.398;7.024;2023-09-12T03:23:16;101011.66;;;19.83;100.00
58534;BME280;44109;52.398;7.024;2023-09-12T03:25:44;100995.06;;;19.65;100.00
58534;BME280;44109;52.398;7.024;2023-09-12T03:28:12;101020.13;;;19.83;100.00
58534;BME280;44109;52.398;7.024;2023-09-12T03:30:39;101029.66;;;19.89;100.00
58534;BME280;44109;52.398;7.024;2023-09-12T03:33:07;101030.47;;;19.90;100.00
58534;BME280;44109;52.398;7.024;2023-09-12T03:35:36;101033.41;;;19.83;100.00
58534;BME280;44109;52.398;7.024;2023-09-12T03:38:03;101031.44;;;19.80;100.00
58534;BME280;44109;52.398;7.024;2023-09-12T03:40:32;101041.53;;;19.77;100.00
58534;BME280;44109;52.398;7.024;2023-09-12T03:43:00;101037.94;;;19.76;100.00
58534;BME280;44109;52.398;7.024;2023-09-12T03:45:28;101030.78;;;19.72;100.00
58534;BME280;44109;52.398;7.024;2023-09-12T03:47:55;101035.59;;;19.71;100.00
58534;BME280;44109;52.398;7.024;2023-09-12T03:50:23;101038.00;;;19.73;100.00
58534;BME280;44109;52.398;7.024;2023-09-12T03:52:50;101030.28;;;19.77;100.00
58534;BME280;44109;52.398;7.024;2023-09-12T03:55:18;101031.88;;;19.78;100.00
58534;BME280;44109;52.398;7.024;2023-09-12T03:57:47;101026.97;;;19.82;100.00
58534;BME280;44109;52.398;7.024;2023-09-12T04:00:15;101034.19;;;19.83;100.00
58534;BME280;44109;52.398;7.024;2023-09-12T04:02:43;101040.19;;;19.85;100.00
58534;BME280;44109;52.398;7.024;2023-09-12T04:05:11;101041.41;;;19.84;100.00
58534;BME280;44109;52.398;7.024;2023-09-12T04:07:38;101034.56;;;19.85;100.00
58534;BME280;44109;52.398;7.024;2023-09-12T04:10:06;101031.25;;;19.90;100.00
58534;BME280;44109;52.398;7.024;2023-09-12T04:12:34;101033.59;;;19.95;100.00
58534;BME280;44109;52.398;7.024;2023-09-12T04:15:04;101027.47;;;20.00;100.00
58534;BME280;44109;52.398;7.024;2023-09-12T04:17:33;101039.81;;;20.07;100.00
58534;BME280;44109;52.398;7.024;2023-09-12T04:20:01;101035.28;;;20.13;100.00
58534;BME280;44109;52.398;7.024;2023-09-12T04:22:29;101043.66;;;20.16;100.00
58534;BME280;44109;52.398;7.024;2023-09-12T04:24:57;101043.31;;;20.14;100.00
58534;BME280;44109;52.398;7.024;2023-09-12T04:27:24;101050.47;;;20.19;100.00
58534;BME280;44109;52.398;7.024;2023-09-12T04:29:52;101056.44;;;20.21;100.00
58534;BME280;44109;52.398;7.024;2023-09-12T04:32:21;101052.94;;;20.17;100.00
58534;BME280;44109;52.398;7.024;2023-09-12T04:34:49;101050.47;;;20.19;100.00
58534;BME280;44109;52.398;7.024;2023-09-12T04:37:17;101037.13;;;20.23;100.00
58534;BME280;44109;52.398;7.024;2023-09-12T04:39:45;101048.22;;;20.30;100.00
58534;BME280;44109;52.398;7.024;2023-09-12T04:42:13;101041.31;;;20.35;100.00
58534;BME280;44109;52.398;7.024;2023-09-12T04:44:41;101034.81;;;20.38;100.00
58534;BME280;44109;52.398;7.024;2023-09-12T04:47:09;101027.81;;;20.26;100.00
58534;BME280;44109;52.398;7.024;2023-09-12T04:49:38;101031.47;;;20.23;100.00
58534;BME280;44109;52.398;7.024;2023-09-12T04:52:06;101036.88;;;20.14;100.00
58534;BME280;44109;52.398;7.024;2023-09-12T04:54:34;101038.69;;;20.24;100.00
58534;BME280;44109;52.398;7.024;2023-09-12T04:57:03;101044.53;;;20.13;100.00
58534;BME280;44109;52.398;7.024;2023-09-12T04:59:31;101052.84;;;20.20;100.00
58534;BME280;44109;52.398;7.024;2023-09-12T05:01:58;101055.09;;;20.29;100.00
58534;BME280;44109;52.398;7.024;2023-09-12T05:04:26;101045.28;;;20.37;100.00
58534;BME280;44109;52.398;7.024;2023-09-12T05:06:55;101046.38;;;20.43;100.00
58534;BME280;44109;52.398;7.024;2023-09-12T05:09:23;101041.50;;;20.47;100.00
58534;BME280;44109;52.398;7.024;2023-09-12T05:11:50;101048.75;;;20.48;100.00
58534;BME280;44109;52.398;7.024;2023-09-12T05:14:18;101037.47;;;20.48;100.00
58534;BME280;44109;52.398;7.024;2023-09-12T05:16:46;101045.94;;;20.48;100.00
58534;BME280;44109;52.398;7.024;2023-09-12T05:19:13;101053.50;;;20.51;100.00
58534;BME280;44109;52.398;7.024;2023-09-12T05:21:41;101046.47;;;20.40;100.00
58534;BME280;44109;52.398;7.024;2023-09-12T05:24:10;101054.47;;;20.41;100.00
58534;BME280;44109;52.398;7.024;2023-09-12T05:26:37;101059.03;;;20.35;100.00
58534;BME280;44109;52.398;7.024;2023-09-12T05:29:05;101050.69;;;20.28;100.00
58534;BME280;44109;52.398;7.024;2023-09-12T05:31:33;101063.03;;;20.34;100.00
58534;BME280;44109;52.398;7.024;2023-09-12T05:34:00;101072.22;;;20.38;100.00
58534;BME280;44109;52.398;7.024;2023-09-12T05:36:28;101074.63;;;20.40;100.00
58534;BME280;44109;52.398;7.024;2023-09-12T05:38:55;101078.25;;;20.40;100.00
58534;BME280;44109;52.398;7.024;2023-09-12T05:41:24;101077.81;;;20.42;100.00
58534;BME280;44109;52.398;7.024;2023-09-12T05:43:51;101081.91;;;20.37;100.00
58534;BME280;44109;52.398;7.024;2023-09-12T05:46:19;101081.69;;;20.28;100.00
58534;BME280;44109;52.398;7.024;2023-09-12T05:48:46;101092.34;;;20.17;100.00
58534;BME280;44109;52.398;7.024;2023-09-12T05:51:14;101101.41;;;20.28;100.00
58534;BME280;44109;52.398;7.024;2023-09-12T05:53:42;101106.03;;;20.38;100.00
58534;BME280;44109;52.398;7.024;2023-09-12T05:56:09;101113.16;;;20.46;100.00
58534;BME280;44109;52.398;7.024;2023-09-12T05:58:38;101104.66;;;20.50;100.00
58534;BME280;44109;52.398;7.024;2023-09-12T06:01:08;101099.03;;;20.50;100.00
58534;BME280;44109;52.398;7.024;2023-09-12T06:03:36;101097.09;;;20.43;100.00
58534;BME280;44109;52.398;7.024;2023-09-12T06:06:04;101095.78;;;20.51;100.00
58534;BME280;44109;52.398;7.024;2023-09-12T06:08:32;101094.41;;;20.60;100.00
58534;BME280;44109;52.398;7.024;2023-09-12T06:10:59;101099.94;;;20.67;100.00
58534;BME280;44109;52.398;7.024;2023-09-12T06:13:27;101097.38;;;20.72;100.00
58534;BME280;44109;52.398;7.024;2023-09-12T06:15:56;101094.84;;;20.78;100.00
58534;BME280;44109;52.398;7.024;2023-09-12T06:18:23;101098.41;;;20.82;100.00
58534;BME280;44109;52.398;7.024;2023-09-12T06:20:54;101092.38;;;20.80;100.00
58534;BME280;44109;52.398;7.024;2023-09-12T06:23:22;101092.03;;;20.78;100.00
58534;BME280;44109;52.398;7.024;2023-09-12T06:25:49;101089.50;;;20.64;100.00
58534;BME280;44109;52.398;7.024;2023-09-12T06:28:25;101088.84;;;20.56;100.00
58534;BME280;44109;52.398;7.024;2023-09-12T06:30:53;101095.44;;;20.46;100.00
58534;BME280;44109;52.398;7.024;2023-09-12T06:33:22;101084.72;;;20.61;100.00
58534;BME280;44109;52.398;7.024;2023-09-12T06:35:50;101085.09;;;20.63;100.00
58534;BME280;44109;52.398;7.024;2023-09-12T06:38:19;101100.28;;;20.69;100.00
58534;BME280;44109;52.398;7.024;2023-09-12T06:40:47;101100.56;;;20.74;100.00
58534;BME280;44109;52.398;7.024;2023-09-12T06:43:14;101093.50;;;20.86;100.00
58534;BME280;44109;52.398;7.024;2023-09-12T06:45:42;101098.69;;;20.88;100.00
58534;BME280;44109;52.398;7.024;2023-09-12T06:48:10;101090.28;;;20.84;100.00
58534;BME280;44109;52.398;7.024;2023-09-12T06:50:39;101103.81;;;20.73;100.00
58534;BME280;44109;52.398;7.024;2023-09-12T06:53:07;101107.22;;;20.84;100.00
58534;BME280;44109;52.398;7.024;2023-09-12T06:55:36;101112.22;;;20.96;100.00
58534;BME280;44109;52.398;7.024;2023-09-12T06:58:03;101101.50;;;20.88;100.00
58534;BME280;44109;52.398;7.024;2023-09-12T07:00:31;101108.31;;;20.90;100.00
58534;BME280;44109;52.398;7.024;2023-09-12T07:02:59;101111.34;;;20.99;100.00
58534;BME280;44109;52.398;7.024;2023-09-12T07:05:26;101121.88;;;21.15;100.00
58534;BME280;44109;52.398;7.024;2023-09-12T07:07:55;101121.59;;;21.10;100.00
58534;BME280;44109;52.398;7.024;2023-09-12T07:10:23;101126.81;;;20.91;100.00
58534;BME280;44109;52.398;7.024;2023-09-12T07:12:50;101134.94;;;20.89;100.00
58534;BME280;44109;52.398;7.024;2023-09-12T07:15:19;101132.03;;;20.93;100.00
58534;BME280;44109;52.398;7.024;2023-09-12T07:17:46;101132.47;;;20.91;100.00
58534;BME280;44109;52.398;7.024;2023-09-12T07:20:14;101143.97;;;21.00;100.00
58534;BME280;44109;52.398;7.024;2023-09-12T07:22:43;101138.53;;;21.10;100.00
58534;BME280;44109;52.398;7.024;2023-09-12T07:25:13;101153.56;;;21.23;100.00
58534;BME280;44109;52.398;7.024;2023-09-12T07:27:41;101164.59;;;21.37;100.00
58534;BME280;44109;52.398;7.024;2023-09-12T07:30:10;101163.66;;;21.44;100.00
58534;BME280;44109;52.398;7.024;2023-09-12T07:32:38;101165.88;;;21.52;100.00
58534;BME280;44109;52.398;7.024;2023-09-12T07:35:06;101169.78;;;21.59;100.00
58534;BME280;44109;52.398;7.024;2023-09-12T07:37:35;101168.47;;;21.63;100.00
58534;BME280;44109;52.398;7.024;2023-09-12T07:40:03;101167.75;;;21.75;100.00
58534;BME280;44109;52.398;7.024;2023-09-12T07:42:36;101170.81;;;21.85;100.00
58534;BME280;44109;52.398;7.024;2023-09-12T07:45:05;101158.47;;;21.95;100.00
58534;BME280;44109;52.398;7.024;2023-09-12T07:47:34;101168.34;;;22.03;100.00
58534;BME280;44109;52.398;7.024;2023-09-12T07:50:01;101162.97;;;22.09;100.00
58534;BME280;44109;52.398;7.024;2023-09-12T07:52:29;101162.97;;;22.09;100.00
58534;BME280;44109;52.398;7.024;2023-09-12T07:54:59;101157.31;;;22.09;100.00
58534;BME280;44109;52.398;7.024;2023-09-12T07:57:28;101151.75;;;22.05;100.00
58534;BME280;44109;52.398;7.024;2023-09-12T07:59:57;101152.19;;;22.03;100.00
58534;BME280;44109;52.398;7.024;2023-09-12T08:02:24;101146.09;;;22.05;100.00
58534;BME280;44109;52.398;7.024;2023-09-12T08:04:52;101138.88;;;22.04;100.00
58534;BME280;44109;52.398;7.024;2023-09-12T08:07:20;101136.03;;;22.04;100.00
58534;BME280;44109;52.398;7.024;2023-09-12T08:09:49;101132.44;;;22.03;100.00
58534;BME280;44109;52.398;7.024;2023-09-12T08:12:18;101137.38;;;21.99;100.00
58534;BME280;44109;52.398;7.024;2023-09-12T08:14:46;101141.06;;;21.96;100.00
58534;BME280;44109;52.398;7.024;2023-09-12T08:17:16;101130.81;;;21.86;100.00
58534;BME280;44109;52.398;7.024;2023-09-12T08:19:44;101133.09;;;21.75;100.00
58534;BME280;44109;52.398;7.024;2023-09-12T08:22:12;101148.28;;;21.81;100.00
58534;BME280;44109;52.398;7.024;2023-09-12T08:24:40;101144.22;;;21.82;100.00
58534;BME280;44109;52.398;7.024;2023-09-12T08:27:07;101144.94;;;21.86;100.00
58534;BME280;44109;52.398;7.024;2023-09-12T08:29:35;101148.09;;;21.88;100.00
58534;BME280;44109;52.398;7.024;2023-09-12T08:32:04;101146.91;;;21.89;100.00
58534;BME280;44109;52.398;7.024;2023-09-12T08:34:33;101133.56;;;21.90;100.00
58534;BME280;44109;52.398;7.024;2023-09-12T08:37:01;101144.94;;;21.86;100.00
58534;BME280;44109;52.398;7.024;2023-09-12T08:39:40;101135.94;;;21.91;100.00
58534;BME280;44109;52.398;7.024;2023-09-12T08:42:11;101127.81;;;21.93;100.00
58534;BME280;44109;52.398;7.024;2023-09-12T08:44:40;101128.53;;;21.97;100.00
58534;BME280;44109;52.398;7.024;2023-09-12T08:47:09;101116.81;;;21.99;100.00
58534;BME280;44109;52.398;7.024;2023-09-12T08:49:40;101128.81;;;22.03;100.00
58534;BME280;44109;52.398;7.024;2023-09-12T08:52:08;101117.50;;;22.03;100.00
58534;BME280;44109;52.398;7.024;2023-09-12T08:54:36;101129.16;;;22.05;100.00
58534;BME280;44109;52.398;7.024;2023-09-12T08:57:05;101126.56;;;22.11;100.00
58534;BME280;44109;52.398;7.024;2023-09-12T08:59:34;101131.19;;;22.21;100.00
58534;BME280;44109;52.398;7.024;2023-09-12T09:02:03;101128.81;;;22.36;100.00
58534;BME280;44109;52.398;7.024;2023-09-12T09:04:38;101118.38;;;22.49;100.00
58534;BME280;44109;52.398;7.024;2023-09-12T09:07:08;101119.75;;;22.57;100.00
58534;BME280;44109;52.398;7.024;2023-09-12T09:09:39;101121.84;;;22.69;100.00
58534;BME280;44109;52.398;7.024;2023-09-12T09:12:07;101124.66;;;22.40;100.00
58534;BME280;44109;52.398;7.024;2023-09-12T09:14:36;101120.88;;;22.31;100.00
58534;BME280;44109;52.398;7.024;2023-09-12T09:17:04;101127.28;;;22.47;100.00
58534;BME280;44109;52.398;7.024;2023-09-12T09:19:42;101129.94;;;22.84;100.00
58534;BME280;44109;52.398;7.024;2023-09-12T09:22:10;101146.97;;;22.96;100.00
58534;BME280;44109;52.398;7.024;2023-09-12T09:24:38;101158.84;;;22.75;100.00
58534;BME280;44109;52.398;7.024;2023-09-12T09:27:05;101155.13;;;22.94;100.00
58534;BME280;44109;52.398;7.024;2023-09-12T09:29:45;101154.91;;;23.31;100.00
58534;BME280;44109;52.398;7.024;2023-09-12T09:32:17;101151.50;;;23.36;100.00
58534;BME280;44109;52.398;7.024;2023-09-12T09:34:49;101164.72;;;23.68;100.00
58534;BME280;44109;52.398;7.024;2023-09-12T09:37:16;101164.50;;;24.00;100.00
58534;BME280;44109;52.398;7.024;2023-09-12T09:39:47;101163.53;;;24.29;100.00
58534;BME280;44109;52.398;7.024;2023-09-12T09:42:18;101165.44;;;24.58;100.00
58534;BME280;44109;52.398;7.024;2023-09-12T09:44:46;101148.72;;;24.12;100.00
58534;BME280;44109;52.398;7.024;2023-09-12T09:47:15;101139.66;;;23.79;100.00
58534;BME280;44109;52.398;7.024;2023-09-12T09:49:45;101136.22;;;24.35;100.00
58534;BME280;44109;52.398;7.024;2023-09-12T09:52:14;101148.72;;;24.94;100.00
58534;BME280;44109;52.398;7.024;2023-09-12T09:54:45;101147.66;;;25.01;100.00
58534;BME280;44109;52.398;7.024;2023-09-12T09:57:12;101158.38;;;25.19;100.00
58534;BME280;44109;52.398;7.024;2023-09-12T09:59:40;101152.59;;;25.53;100.00
58534;BME280;44109;52.398;7.024;2023-09-12T10:02:15;101152.13;;;25.77;100.00
58534;BME280;44109;52.398;7.024;2023-09-12T10:04:48;101150.00;;;25.68;100.00
58534;BME280;44109;52.398;7.024;2023-09-12T10:07:20;101152.03;;;25.68;100.00
58534;BME280;44109;52.398;7.024;2023-09-12T10:09:49;101147.16;;;25.37;100.00
58534;BME280;44109;52.398;7.024;2023-09-12T10:12:17;101159.75;;;25.36;100.00
58534;BME280;44109;52.398;7.024;2023-09-12T10:14:45;101156.13;;;25.36;100.00
58534;BME280;44109;52.398;7.024;2023-09-12T10:17:18;101151.78;;;25.22;100.00
58534;BME280;44109;52.398;7.024;2023-09-12T10:19:55;101154.78;;;25.05;100.00
58534;BME280;44109;52.398;7.024;2023-09-12T10:22:32;101144.38;;;24.80;100.00
58534;BME280;44109;52.398;7.024;2023-09-12T10:25:04;101146.53;;;24.76;100.00
58534;BME280;44109;52.398;7.024;2023-09-12T10:27:34;101155.28;;;24.69;100.00
58534;BME280;44109;52.398;7.024;2023-09-12T10:30:02;101143.28;;;24.65;100.00
58534;BME280;44109;52.398;7.024;2023-09-12T10:32:32;101144.06;;;24.66;100.00
58534;BME280;44109;52.398;7.024;2023-09-12T10:35:02;101148.38;;;24.70;100.00
58534;BME280;44109;52.398;7.024;2023-09-12T10:37:32;101148.00;;;24.81;100.00
58534;BME280;44109;52.398;7.024;2023-09-12T10:40:08;101156.91;;;24.92;100.00
58534;BME280;44109;52.398;7.024;2023-09-12T10:42:36;101161.97;;;25.10;100.00
58534;BME280;44109;52.398;7.024;2023-09-12T10:45:06;101162.88;;;25.29;100.00
58534;BME280;44109;52.398;7.024;2023-09-12T10:47:36;101165.50;;;25.45;100.00
58534;BME280;44109;52.398;7.024;2023-09-12T10:50:06;101155.16;;;25.61;100.00
58534;BME280;44109;52.398;7.024;2023-09-12T10:52:35;101158.81;;;25.70;100.00
58534;BME280;44109;52.398;7.024;2023-09-12T10:55:06;101164.75;;;25.76;100.00
58534;BME280;44109;52.398;7.024;2023-09-12T10:57:34;101162.56;;;25.80;100.00
58534;BME280;44109;52.398;7.024;2023-09-12T11:00:22;101164.91;;;25.82;100.00
58534;BME280;44109;52.398;7.024;2023-09-12T11:02:50;101171.09;;;25.80;100.00
58534;BME280;44109;52.398;7.024;2023-09-12T11:05:37;101179.59;;;25.80;100.00
58534;BME280;44109;52.398;7.024;2023-09-12T11:08:20;101188.50;;;25.91;100.00
58534;BME280;44109;52.398;7.024;2023-09-12T11:11:19;101177.44;;;25.93;100.00
58534;BME280;44109;52.398;7.024;2023-09-12T11:14:02;101181.47;;;26.23;100.00
58534;BME280;44109;52.398;7.024;2023-09-12T11:16:30;101174.97;;;26.14;100.00
58534;BME280;44109;52.398;7.024;2023-09-12T11:19:15;101171.75;;;25.93;100.00
58534;BME280;44109;52.398;7.024;2023-09-12T11:21:43;101162.00;;;26.03;100.00
58534;BME280;44109;52.398;7.024;2023-09-12T11:24:14;101150.44;;;25.98;100.00
58534;BME280;44109;52.398;7.024;2023-09-12T11:26:56;101147.00;;;26.03;100.00
58534;BME280;44109;52.398;7.024;2023-09-12T11:29:29;101143.66;;;25.64;100.00
58534;BME280;44109;52.398;7.024;2023-09-12T11:32:02;101144.47;;;25.74;100.00
58534;BME280;44109;52.398;7.024;2023-09-12T11:34:36;101151.06;;;25.09;100.00
58534;BME280;44109;52.398;7.024;2023-09-12T11:37:05;101148.00;;;24.34;100.00
58534;BME280;44109;52.398;7.024;2023-09-12T11:39:36;101151.34;;;23.94;100.00
58534;BME280;44109;52.398;7.024;2023-09-12T11:42:10;101149.84;;;24.40;100.00
58534;BME280;44109;52.398;7.024;2023-09-12T11:44:40;101147.69;;;24.19;100.00
58534;BME280;44109;52.398;7.024;2023-09-12T11:47:11;101142.78;;;24.45;100.00
58534;BME280;44109;52.398;7.024;2023-09-12T11:49:40;101146.59;;;24.64;100.00
58534;BME280;44109;52.398;7.024;2023-09-12T11:52:09;101148.53;;;25.33;100.00
58534;BME280;44109;52.398;7.024;2023-09-12T11:54:40;101155.53;;;25.72;100.00
58534;BME280;44109;52.398;7.024;2023-09-12T11:57:09;101148.41;;;25.98;100.00
58534;BME280;44109;52.398;7.024;2023-09-12T11:59:40;101146.34;;;25.99;100.00
58534;BME280;44109;52.398;7.024;2023-09-12T12:02:11;101148.94;;;26.24;100.00
58534;BME280;44109;52.398;7.024;2023-09-12T12:04:39;101142.09;;;26.03;100.00
58534;BME280;44109;52.398;7.024;2023-09-12T12:07:07;101138.69;;;26.36;100.00
58534;BME280;44109;52.398;7.024;2023-09-12T12:09:34;101133.53;;;26.53;100.00
58534;BME280;44109;52.398;7.024;2023-09-12T12:12:09;101128.31;;;26.51;100.00
58534;BME280;44109;52.398;7.024;2023-09-12T12:14:38;101130.84;;;26.59;100.00
58534;BME280;44109;52.398;7.024;2023-09-12T12:17:07;101124.53;;;26.73;100.00
58534;BME280;44109;52.398;7.024;2023-09-12T12:19:36;101123.09;;;26.68;100.00
58534;BME280;44109;52.398;7.024;2023-09-12T12:22:04;101123.25;;;26.74;100.00
58534;BME280;44109;52.398;7.024;2023-09-12T12:24:36;101110.00;;;26.62;100.00
58534;BME280;44109;52.398;7.024;2023-09-12T12:27:06;101107.16;;;26.62;100.00
58534;BME280;44109;52.398;7.024;2023-09-12T12:29:36;101100.03;;;26.75;100.00
58534;BME280;44109;52.398;7.024;2023-09-12T12:32:06;101105.06;;;26.90;100.00
58534;BME280;44109;52.398;7.024;2023-09-12T12:34:35;101083.06;;;26.90;100.00
58534;BME280;44109;52.398;7.024;2023-09-12T12:37:04;101086.38;;;26.89;100.00
58534;BME280;44109;52.398;7.024;2023-09-12T12:39:32;101076.13;;;26.73;100.00
58534;BME280;44109;52.398;7.024;2023-09-12T12:42:00;101081.16;;;26.23;100.00
58534;BME280;44109;52.398;7.024;2023-09-12T12:44:34;101081.44;;;26.16;100.00
58534;BME280;44109;52.398;7.024;2023-09-12T12:47:06;101078.19;;;26.36;100.00
58534;BME280;44109;52.398;7.024;2023-09-12T12:49:36;101083.72;;;26.76;100.00
58534;BME280;44109;52.398;7.024;2023-09-12T12:52:05;101076.44;;;26.75;100.00